Terminal Aerodrome Forecast
Issued by NWS Atlanta, GA

Home | Current Version | Previous Version | Text Only | Print | Product List | Glossary On
Versions: 1 2 3 4 5 6 7 8 9 10 11 12 13 14 15 16 17 18 19 20 21 22 23 24
674
FTUS42 KFFC 262342
TAFCSG
TAF
KCSG 262342Z 2700/2724 05006KT P6SM FEW060 SCT110
      TEMPO 2700/2702 VRB15G25KT 4SM TSRA BKN035CB
     FM270200 13004KT P6SM FEW080
     FM270700 09003KT P6SM BKN015
     FM271400 10004KT P6SM SCT035
     FM271700 VRB04KT P6SM SCT050 SCT250 PROB30 2719/2723 P6SM TSRA
      BKN040CB=

USA.gov is the U.S. government's official web portal to all federal, state and local government web resources and services.